createdAt,value
2022-10-01T00:01:26.887Z,58.4
2022-10-01T00:11:26.755Z,58.4
2022-10-01T00:21:26.738Z,58.4
2022-10-01T00:26:26.759Z,58.5
2022-10-01T00:36:26.770Z,58.4
2022-10-01T00:46:26.754Z,58.5
2022-10-01T00:56:26.776Z,58.7
2022-10-01T01:01:26.884Z,58.6
2022-10-01T01:11:26.756Z,58.8
2022-10-01T01:16:26.801Z,58.6
2022-10-01T01:21:26.798Z,58.8
2022-10-01T01:26:26.781Z,58.9
2022-10-01T01:36:26.784Z,59.1
2022-10-01T01:46:26.786Z,59.4
2022-10-01T01:56:26.797Z,59.5
2022-10-01T02:01:26.853Z,59.6
2022-10-01T02:11:26.748Z,59.8
2022-10-01T02:16:26.970Z,59.8
2022-10-01T02:26:26.754Z,60
2022-10-01T02:36:26.770Z,60.4
2022-10-01T02:41:26.761Z,60.4
2022-10-01T02:46:26.766Z,60.5
2022-10-01T02:56:26.793Z,60.6
2022-10-01T03:01:26.786Z,60.7
2022-10-01T03:11:26.751Z,60.8
2022-10-01T03:16:26.912Z,60.9
2022-10-01T03:26:26.751Z,60.9
2022-10-01T03:31:26.846Z,60.7
2022-10-01T03:36:26.800Z,60.7
2022-10-01T03:46:26.753Z,60.9
2022-10-01T03:56:26.837Z,61.1
2022-10-01T04:01:26.808Z,61.3
2022-10-01T04:06:26.779Z,61.5
2022-10-01T04:16:26.907Z,61.5
2022-10-01T04:26:26.757Z,61.7
2022-10-01T04:31:27.047Z,61.3
2022-10-01T04:36:26.805Z,61.5
2022-10-01T04:46:26.844Z,61.9
2022-10-01T04:56:26.789Z,62
2022-10-01T05:01:26.883Z,62.1
2022-10-01T05:11:26.761Z,62.1
2022-10-01T05:16:26.885Z,61.9
2022-10-01T05:26:26.772Z,62.5
2022-10-01T05:31:26.883Z,62.6
2022-10-01T05:41:26.798Z,62.4
2022-10-01T05:46:26.778Z,62.3
2022-10-01T05:56:26.775Z,62.3
2022-10-01T06:06:26.797Z,62.4
2022-10-01T06:16:26.878Z,62.6
2022-10-01T06:26:26.807Z,62.3
2022-10-01T06:31:26.847Z,62.2
2022-10-01T06:41:26.768Z,62.2
2022-10-01T06:46:26.800Z,62.4
2022-10-01T06:51:26.782Z,62.3
2022-10-01T07:01:26.834Z,62.5
2022-10-01T07:06:26.814Z,62.6
2022-10-01T07:16:26.834Z,64.1
2022-10-01T07:26:26.972Z,63.3
2022-10-01T07:36:26.775Z,63
2022-10-01T07:41:26.793Z,62.9
2022-10-01T07:46:28.041Z,63.4
2022-10-01T07:56:26.803Z,63.1
2022-10-01T08:01:26.854Z,63.3
2022-10-01T08:11:26.802Z,63.2
2022-10-01T08:16:26.816Z,63.2
2022-10-01T08:26:26.783Z,63.3
2022-10-01T08:36:26.818Z,63.5
2022-10-01T08:41:26.800Z,63.5
2022-10-01T08:51:26.802Z,64.9
2022-10-01T09:01:26.902Z,64.4
2022-10-01T09:06:26.801Z,64.3
2022-10-01T09:16:26.845Z,64.4
2022-10-01T09:21:26.819Z,64.5
2022-10-01T09:31:26.845Z,65.8
2022-10-01T09:41:26.847Z,65.6
2022-10-01T09:46:26.798Z,65.6
2022-10-01T09:56:26.793Z,65.8
2022-10-01T10:06:26.832Z,66.1
2022-10-01T10:16:27.016Z,66.3
2022-10-01T10:21:26.805Z,66.5
2022-10-01T10:31:26.865Z,66.6
2022-10-01T10:41:26.800Z,67.2
2022-10-01T10:46:26.852Z,66.6
2022-10-01T10:56:26.898Z,66.7
2022-10-01T11:01:26.821Z,66.3
2022-10-01T11:06:26.791Z,66
2022-10-01T11:11:26.812Z,65.5
2022-10-01T11:21:26.832Z,65.5
2022-10-01T11:26:26.810Z,65.8
2022-10-01T11:31:26.894Z,66
2022-10-01T11:41:26.825Z,65.8
2022-10-01T11:46:26.898Z,66
2022-10-01T11:56:26.794Z,65.7
2022-10-01T12:01:26.817Z,65.4
2022-10-01T12:11:26.806Z,65.7
2022-10-01T12:16:26.835Z,65.4
2022-10-01T12:21:26.838Z,65.2
2022-10-01T12:31:26.876Z,66.1
2022-10-01T12:36:26.819Z,67.8
2022-10-01T12:46:26.895Z,69.6
2022-10-01T12:56:26.807Z,70.4
2022-10-01T13:06:26.829Z,70
2022-10-01T13:11:26.803Z,70.3
2022-10-01T13:16:26.898Z,70.9
2022-10-01T13:26:26.832Z,70.4
2022-10-01T13:31:26.900Z,70.3
2022-10-01T13:41:26.825Z,70.8
2022-10-01T13:51:26.831Z,70.7
2022-10-01T13:56:26.810Z,70.7
2022-10-01T14:01:26.860Z,71.5
2022-10-01T14:11:26.849Z,74
2022-10-01T14:21:26.819Z,71.9
2022-10-01T14:26:26.832Z,71.5
2022-10-01T14:36:26.849Z,70.8
2022-10-01T14:41:26.837Z,71.1
2022-10-01T14:51:26.832Z,70.9
2022-10-01T15:01:26.852Z,71.2
2022-10-01T15:06:26.834Z,71.5
2022-10-01T15:16:26.930Z,71.5
2022-10-01T15:21:26.861Z,71.2
2022-10-01T15:31:26.902Z,72.5
2022-10-01T15:41:31.988Z,72
2022-10-01T15:51:26.830Z,71.9
2022-10-01T15:56:26.848Z,71.6
2022-10-01T16:06:26.852Z,70.8
2022-10-01T16:16:26.930Z,71
2022-10-01T16:26:26.846Z,70.6
2022-10-01T16:36:26.823Z,70.5
2022-10-01T16:41:26.841Z,70.2
2022-10-01T16:46:26.860Z,70
2022-10-01T16:56:27.370Z,69.7
2022-10-01T17:01:26.876Z,69.4
2022-10-01T17:06:26.861Z,69.3
2022-10-01T17:16:26.889Z,68.7
2022-10-01T17:21:26.834Z,69.1
2022-10-01T17:26:26.863Z,69.3
2022-10-01T17:36:26.821Z,68.7
2022-10-01T17:41:26.825Z,68.3
2022-10-01T17:46:26.866Z,69
2022-10-01T17:56:26.844Z,67.5
2022-10-01T18:01:26.901Z,67.9
2022-10-01T18:11:26.887Z,74.1
2022-10-01T18:16:26.905Z,74.9
2022-10-01T18:21:26.845Z,75.2
2022-10-01T18:31:26.969Z,74.1
2022-10-01T18:41:26.842Z,71.7
2022-10-01T18:46:26.855Z,70.9
2022-10-01T18:56:26.865Z,69.9
2022-10-01T19:01:27.056Z,69.3
2022-10-01T19:06:26.857Z,70.7
2022-10-01T19:11:26.843Z,72.4
2022-10-01T19:21:26.873Z,73.1
2022-10-01T19:31:26.837Z,73.7
2022-10-01T19:36:26.849Z,73.7
2022-10-01T19:46:26.928Z,72.3
2022-10-01T19:51:26.854Z,71.1
2022-10-01T20:01:26.942Z,69.9
2022-10-01T20:06:26.860Z,69.8
2022-10-01T20:11:26.860Z,69.5
2022-10-01T20:21:26.838Z,69.4
2022-10-01T20:26:26.867Z,69.2
2022-10-01T20:36:27.617Z,68.8
2022-10-01T20:46:26.877Z,68.7
2022-10-01T20:56:26.840Z,68.4
2022-10-01T21:01:26.950Z,68.5
2022-10-01T21:11:26.866Z,68.3
2022-10-01T21:16:26.881Z,68.3
2022-10-01T21:26:26.862Z,68.1
2022-10-01T21:36:26.885Z,68.1
2022-10-01T21:46:26.848Z,67
2022-10-01T21:51:26.862Z,67.2
2022-10-01T21:56:26.906Z,67.4
2022-10-01T22:06:26.876Z,67.3
2022-10-01T22:16:26.983Z,67.2
2022-10-01T22:21:26.865Z,67.6
2022-10-01T22:31:26.968Z,67.3
2022-10-01T22:36:26.871Z,67.2
2022-10-01T22:41:26.857Z,67.3
2022-10-01T22:46:26.867Z,67.4
2022-10-01T22:56:26.875Z,67.5
2022-10-01T23:01:26.926Z,67.3
2022-10-01T23:06:26.868Z,67.6
2022-10-01T23:16:26.949Z,67.6
2022-10-01T23:21:26.854Z,67.5
2022-10-01T23:26:26.880Z,67.3
2022-10-01T23:31:26.936Z,67.3
2022-10-01T23:41:26.890Z,67.4
2022-10-01T23:46:26.886Z,67.2
2022-10-01T23:51:26.878Z,67.1
